sensor_id;sensor_type;location;lat;lon;timestamp;P1;durP1;ratioP1;P2;durP2;ratioP2
8088;SDS011;57635;49.194;12.104;2023-02-15T00:01:39;12.07;;;10.20;;
8088;SDS011;57635;49.194;12.104;2023-02-15T00:04:08;13.73;;;10.03;;
8088;SDS011;57635;49.194;12.104;2023-02-15T00:06:38;16.27;;;11.50;;
8088;SDS011;57635;49.194;12.104;2023-02-15T00:09:05;14.07;;;11.37;;
8088;SDS011;57635;49.194;12.104;2023-02-15T00:11:33;27.70;;;11.50;;
8088;SDS011;57635;49.194;12.104;2023-02-15T00:14:07;36.10;;;15.97;;
8088;SDS011;57635;49.194;12.104;2023-02-15T00:16:35;16.97;;;11.83;;
8088;SDS011;57635;49.194;12.104;2023-02-15T00:19:04;15.87;;;12.10;;
8088;SDS011;57635;49.194;12.104;2023-02-15T00:21:32;15.70;;;11.03;;
8088;SDS011;57635;49.194;12.104;2023-02-15T00:24:02;18.30;;;11.37;;
8088;SDS011;57635;49.194;12.104;2023-02-15T00:26:31;23.93;;;12.60;;
8088;SDS011;57635;49.194;12.104;2023-02-15T00:28:59;17.07;;;10.57;;
8088;SDS011;57635;49.194;12.104;2023-02-15T00:31:27;14.13;;;10.47;;
8088;SDS011;57635;49.194;12.104;2023-02-15T00:34:00;14.33;;;10.67;;
8088;SDS011;57635;49.194;12.104;2023-02-15T00:36:28;13.17;;;9.77;;
8088;SDS011;57635;49.194;12.104;2023-02-15T00:38:56;14.20;;;10.47;;
8088;SDS011;57635;49.194;12.104;2023-02-15T00:41:25;16.27;;;10.17;;
8088;SDS011;57635;49.194;12.104;2023-02-15T00:43:53;13.40;;;10.47;;
8088;SDS011;57635;49.194;12.104;2023-02-15T00:46:20;12.10;;;9.10;;
8088;SDS011;57635;49.194;12.104;2023-02-15T00:48:48;13.10;;;9.93;;
8088;SDS011;57635;49.194;12.104;2023-02-15T00:51:15;14.63;;;9.87;;
8088;SDS011;57635;49.194;12.104;2023-02-15T00:53:43;13.37;;;10.23;;
8088;SDS011;57635;49.194;12.104;2023-02-15T00:56:11;12.90;;;9.83;;
8088;SDS011;57635;49.194;12.104;2023-02-15T00:58:40;14.63;;;10.97;;
8088;SDS011;57635;49.194;12.104;2023-02-15T01:01:09;13.63;;;10.50;;
8088;SDS011;57635;49.194;12.104;2023-02-15T01:03:37;16.77;;;10.53;;
8088;SDS011;57635;49.194;12.104;2023-02-15T01:06:07;14.07;;;10.43;;
8088;SDS011;57635;49.194;12.104;2023-02-15T01:08:36;12.87;;;10.10;;
8088;SDS011;57635;49.194;12.104;2023-02-15T01:11:04;12.07;;;9.77;;
8088;SDS011;57635;49.194;12.104;2023-02-15T01:13:32;12.63;;;9.00;;
8088;SDS011;57635;49.194;12.104;2023-02-15T01:16:01;13.63;;;8.60;;
8088;SDS011;57635;49.194;12.104;2023-02-15T01:18:29;11.63;;;9.60;;
8088;SDS011;57635;49.194;12.104;2023-02-15T01:20:57;13.77;;;9.93;;
8088;SDS011;57635;49.194;12.104;2023-02-15T01:23:24;14.23;;;10.53;;
8088;SDS011;57635;49.194;12.104;2023-02-15T01:25:52;17.20;;;10.23;;
8088;SDS011;57635;49.194;12.104;2023-02-15T01:28:20;14.40;;;9.57;;
8088;SDS011;57635;49.194;12.104;2023-02-15T01:30:47;12.47;;;8.90;;
8088;SDS011;57635;49.194;12.104;2023-02-15T01:33:16;13.67;;;10.60;;
8088;SDS011;57635;49.194;12.104;2023-02-15T01:35:44;16.70;;;11.53;;
8088;SDS011;57635;49.194;12.104;2023-02-15T01:38:14;13.93;;;10.07;;
8088;SDS011;57635;49.194;12.104;2023-02-15T01:40:42;14.10;;;10.70;;
8088;SDS011;57635;49.194;12.104;2023-02-15T01:43:10;16.80;;;9.97;;
8088;SDS011;57635;49.194;12.104;2023-02-15T01:45:38;10.97;;;9.90;;
8088;SDS011;57635;49.194;12.104;2023-02-15T01:48:13;15.43;;;10.47;;
8088;SDS011;57635;49.194;12.104;2023-02-15T01:50:47;16.10;;;11.03;;
8088;SDS011;57635;49.194;12.104;2023-02-15T01:53:18;15.23;;;10.60;;
8088;SDS011;57635;49.194;12.104;2023-02-15T01:55:49;32.70;;;12.53;;
8088;SDS011;57635;49.194;12.104;2023-02-15T01:58:19;15.87;;;10.70;;
8088;SDS011;57635;49.194;12.104;2023-02-15T02:00:47;19.20;;;10.50;;
8088;SDS011;57635;49.194;12.104;2023-02-15T02:03:14;15.80;;;10.70;;
8088;SDS011;57635;49.194;12.104;2023-02-15T02:05:43;16.17;;;11.30;;
8088;SDS011;57635;49.194;12.104;2023-02-15T02:08:11;14.47;;;9.97;;
8088;SDS011;57635;49.194;12.104;2023-02-15T02:10:39;14.73;;;11.03;;
8088;SDS011;57635;49.194;12.104;2023-02-15T02:13:07;17.87;;;11.30;;
8088;SDS011;57635;49.194;12.104;2023-02-15T02:15:37;18.23;;;11.00;;
8088;SDS011;57635;49.194;12.104;2023-02-15T02:18:12;19.00;;;10.77;;
8088;SDS011;57635;49.194;12.104;2023-02-15T02:21:02;12.80;;;9.37;;
8088;SDS011;57635;49.194;12.104;2023-02-15T02:23:43;17.63;;;11.07;;
8088;SDS011;57635;49.194;12.104;2023-02-15T02:29:27;12.00;;;10.17;;
8088;SDS011;57635;49.194;12.104;2023-02-15T02:35:11;11.03;;;9.53;;
8088;SDS011;57635;49.194;12.104;2023-02-15T02:37:45;14.07;;;9.97;;
8088;SDS011;57635;49.194;12.104;2023-02-15T02:40:19;17.70;;;10.93;;
8088;SDS011;57635;49.194;12.104;2023-02-15T02:42:48;15.30;;;10.50;;
8088;SDS011;57635;49.194;12.104;2023-02-15T02:45:19;14.47;;;10.43;;
8088;SDS011;57635;49.194;12.104;2023-02-15T02:47:50;15.87;;;10.00;;
8088;SDS011;57635;49.194;12.104;2023-02-15T02:50:23;13.50;;;9.70;;
8088;SDS011;57635;49.194;12.104;2023-02-15T02:52:53;14.27;;;9.77;;
8088;SDS011;57635;49.194;12.104;2023-02-15T02:55:23;19.90;;;10.67;;
8088;SDS011;57635;49.194;12.104;2023-02-15T02:57:55;13.93;;;10.10;;
8088;SDS011;57635;49.194;12.104;2023-02-15T03:00:25;13.33;;;10.30;;
8088;SDS011;57635;49.194;12.104;2023-02-15T03:02:57;17.77;;;10.90;;
8088;SDS011;57635;49.194;12.104;2023-02-15T03:05:32;13.03;;;9.83;;
8088;SDS011;57635;49.194;12.104;2023-02-15T03:08:02;14.93;;;10.30;;
8088;SDS011;57635;49.194;12.104;2023-02-15T03:10:32;13.50;;;9.83;;
8088;SDS011;57635;49.194;12.104;2023-02-15T03:13:02;15.33;;;11.23;;
8088;SDS011;57635;49.194;12.104;2023-02-15T03:15:31;14.70;;;10.57;;
8088;SDS011;57635;49.194;12.104;2023-02-15T03:18:17;14.83;;;10.33;;
8088;SDS011;57635;49.194;12.104;2023-02-15T03:20:50;16.50;;;11.03;;
8088;SDS011;57635;49.194;12.104;2023-02-15T03:23:20;11.37;;;9.40;;
8088;SDS011;57635;49.194;12.104;2023-02-15T03:25:50;15.37;;;10.67;;
8088;SDS011;57635;49.194;12.104;2023-02-15T03:28:20;14.60;;;9.70;;
8088;SDS011;57635;49.194;12.104;2023-02-15T03:30:52;12.80;;;9.83;;
8088;SDS011;57635;49.194;12.104;2023-02-15T03:33:21;15.13;;;11.27;;
8088;SDS011;57635;49.194;12.104;2023-02-15T03:35:52;15.77;;;11.70;;
8088;SDS011;57635;49.194;12.104;2023-02-15T03:38:25;16.07;;;11.70;;
8088;SDS011;57635;49.194;12.104;2023-02-15T03:40:54;16.67;;;11.33;;
8088;SDS011;57635;49.194;12.104;2023-02-15T03:43:40;12.23;;;10.73;;
8088;SDS011;57635;49.194;12.104;2023-02-15T03:46:12;14.03;;;10.53;;
8088;SDS011;57635;49.194;12.104;2023-02-15T03:48:44;13.57;;;10.20;;
8088;SDS011;57635;49.194;12.104;2023-02-15T03:51:16;16.30;;;11.53;;
8088;SDS011;57635;49.194;12.104;2023-02-15T03:54:09;15.77;;;10.97;;
8088;SDS011;57635;49.194;12.104;2023-02-15T03:56:38;13.97;;;10.67;;
8088;SDS011;57635;49.194;12.104;2023-02-15T03:59:08;35.33;;;12.77;;
8088;SDS011;57635;49.194;12.104;2023-02-15T04:01:54;15.30;;;11.37;;
8088;SDS011;57635;49.194;12.104;2023-02-15T04:04:29;13.93;;;10.27;;
8088;SDS011;57635;49.194;12.104;2023-02-15T04:07:01;16.67;;;10.80;;
8088;SDS011;57635;49.194;12.104;2023-02-15T04:09:30;12.67;;;10.57;;
8088;SDS011;57635;49.194;12.104;2023-02-15T04:12:15;17.93;;;11.37;;
8088;SDS011;57635;49.194;12.104;2023-02-15T04:14:42;19.47;;;10.97;;
8088;SDS011;57635;49.194;12.104;2023-02-15T04:17:27;16.73;;;11.60;;
8088;SDS011;57635;49.194;12.104;2023-02-15T04:19:55;13.53;;;11.30;;
8088;SDS011;57635;49.194;12.104;2023-02-15T04:22:42;15.13;;;11.47;;
8088;SDS011;57635;49.194;12.104;2023-02-15T04:25:27;13.37;;;10.73;;
8088;SDS011;57635;49.194;12.104;2023-02-15T04:27:58;15.40;;;11.03;;
8088;SDS011;57635;49.194;12.104;2023-02-15T04:30:26;16.97;;;11.57;;
8088;SDS011;57635;49.194;12.104;2023-02-15T04:32:53;14.40;;;11.20;;
8088;SDS011;57635;49.194;12.104;2023-02-15T04:35:23;20.63;;;11.37;;
8088;SDS011;57635;49.194;12.104;2023-02-15T04:37:53;13.77;;;11.07;;
8088;SDS011;57635;49.194;12.104;2023-02-15T04:40:22;15.53;;;10.73;;
8088;SDS011;57635;49.194;12.104;2023-02-15T04:42:49;16.40;;;11.40;;
8088;SDS011;57635;49.194;12.104;2023-02-15T04:45:17;25.47;;;10.93;;
8088;SDS011;57635;49.194;12.104;2023-02-15T04:47:45;16.60;;;10.27;;
8088;SDS011;57635;49.194;12.104;2023-02-15T04:50:12;14.30;;;10.47;;
8088;SDS011;57635;49.194;12.104;2023-02-15T04:52:40;14.63;;;11.73;;
8088;SDS011;57635;49.194;12.104;2023-02-15T04:55:09;24.10;;;11.33;;
8088;SDS011;57635;49.194;12.104;2023-02-15T04:57:36;13.30;;;9.57;;
8088;SDS011;57635;49.194;12.104;2023-02-15T05:00:04;21.03;;;11.07;;
8088;SDS011;57635;49.194;12.104;2023-02-15T05:02:34;23.23;;;11.87;;
8088;SDS011;57635;49.194;12.104;2023-02-15T05:05:02;24.63;;;12.03;;
8088;SDS011;57635;49.194;12.104;2023-02-15T05:07:29;17.53;;;10.87;;
8088;SDS011;57635;49.194;12.104;2023-02-15T05:09:57;16.63;;;11.27;;
8088;SDS011;57635;49.194;12.104;2023-02-15T05:12:26;16.70;;;11.93;;
8088;SDS011;57635;49.194;12.104;2023-02-15T05:14:53;14.63;;;10.67;;
8088;SDS011;57635;49.194;12.104;2023-02-15T05:17:21;48.93;;;19.53;;
8088;SDS011;57635;49.194;12.104;2023-02-15T05:19:49;28.83;;;13.50;;
8088;SDS011;57635;49.194;12.104;2023-02-15T05:22:16;23.93;;;11.43;;
8088;SDS011;57635;49.194;12.104;2023-02-15T05:24:44;15.43;;;12.27;;
8088;SDS011;57635;49.194;12.104;2023-02-15T05:27:31;17.00;;;11.63;;
8088;SDS011;57635;49.194;12.104;2023-02-15T05:30:16;22.93;;;11.23;;
8088;SDS011;57635;49.194;12.104;2023-02-15T05:32:44;23.70;;;12.00;;
8088;SDS011;57635;49.194;12.104;2023-02-15T05:35:12;25.33;;;12.43;;
8088;SDS011;57635;49.194;12.104;2023-02-15T05:37:41;21.90;;;11.70;;
8088;SDS011;57635;49.194;12.104;2023-02-15T05:40:09;17.77;;;13.03;;
8088;SDS011;57635;49.194;12.104;2023-02-15T05:42:38;20.57;;;12.83;;
8088;SDS011;57635;49.194;12.104;2023-02-15T05:45:06;22.07;;;12.67;;
8088;SDS011;57635;49.194;12.104;2023-02-15T05:47:34;18.43;;;11.57;;
8088;SDS011;57635;49.194;12.104;2023-02-15T05:50:02;19.13;;;12.57;;
8088;SDS011;57635;49.194;12.104;2023-02-15T05:52:29;16.33;;;11.37;;
8088;SDS011;57635;49.194;12.104;2023-02-15T05:54:57;18.93;;;12.87;;
8088;SDS011;57635;49.194;12.104;2023-02-15T05:57:26;54.83;;;18.07;;
8088;SDS011;57635;49.194;12.104;2023-02-15T05:59:55;40.60;;;14.50;;
8088;SDS011;57635;49.194;12.104;2023-02-15T06:02:23;23.40;;;12.53;;
8088;SDS011;57635;49.194;12.104;2023-02-15T06:04:50;73.10;;;17.17;;
8088;SDS011;57635;49.194;12.104;2023-02-15T06:07:18;36.00;;;14.27;;
8088;SDS011;57635;49.194;12.104;2023-02-15T06:09:45;24.90;;;13.47;;
8088;SDS011;57635;49.194;12.104;2023-02-15T06:12:13;27.90;;;13.60;;
8088;SDS011;57635;49.194;12.104;2023-02-15T06:14:41;21.70;;;12.93;;
8088;SDS011;57635;49.194;12.104;2023-02-15T06:17:10;21.30;;;13.40;;
8088;SDS011;57635;49.194;12.104;2023-02-15T06:19:38;19.00;;;13.17;;
8088;SDS011;57635;49.194;12.104;2023-02-15T06:22:05;39.93;;;15.27;;
8088;SDS011;57635;49.194;12.104;2023-02-15T06:24:33;29.40;;;15.07;;
8088;SDS011;57635;49.194;12.104;2023-02-15T06:27:01;25.63;;;13.50;;
8088;SDS011;57635;49.194;12.104;2023-02-15T06:29:28;65.33;;;20.33;;
8088;SDS011;57635;49.194;12.104;2023-02-15T06:31:56;20.20;;;11.87;;
8088;SDS011;57635;49.194;12.104;2023-02-15T06:34:25;23.77;;;13.30;;
8088;SDS011;57635;49.194;12.104;2023-02-15T06:36:53;28.40;;;12.80;;
8088;SDS011;57635;49.194;12.104;2023-02-15T06:39:20;36.10;;;16.13;;
8088;SDS011;57635;49.194;12.104;2023-02-15T06:41:48;36.63;;;13.77;;
8088;SDS011;57635;49.194;12.104;2023-02-15T06:44:16;22.50;;;12.37;;
8088;SDS011;57635;49.194;12.104;2023-02-15T06:46:43;26.90;;;11.97;;
8088;SDS011;57635;49.194;12.104;2023-02-15T06:49:11;29.07;;;14.37;;
8088;SDS011;57635;49.194;12.104;2023-02-15T06:51:41;27.70;;;15.10;;
8088;SDS011;57635;49.194;12.104;2023-02-15T06:54:08;25.67;;;15.27;;
8088;SDS011;57635;49.194;12.104;2023-02-15T06:56:36;25.27;;;14.43;;
8088;SDS011;57635;49.194;12.104;2023-02-15T06:59:04;23.27;;;13.13;;
8088;SDS011;57635;49.194;12.104;2023-02-15T07:01:32;36.03;;;15.30;;
8088;SDS011;57635;49.194;12.104;2023-02-15T07:04:00;36.43;;;15.50;;
8088;SDS011;57635;49.194;12.104;2023-02-15T07:06:30;27.03;;;16.67;;
8088;SDS011;57635;49.194;12.104;2023-02-15T07:08:59;27.97;;;14.47;;
8088;SDS011;57635;49.194;12.104;2023-02-15T07:11:27;24.37;;;14.63;;
8088;SDS011;57635;49.194;12.104;2023-02-15T07:14:13;20.17;;;12.53;;
8088;SDS011;57635;49.194;12.104;2023-02-15T07:16:40;23.80;;;13.33;;
8088;SDS011;57635;49.194;12.104;2023-02-15T07:19:08;22.77;;;14.70;;
8088;SDS011;57635;49.194;12.104;2023-02-15T07:21:36;22.73;;;13.63;;
8088;SDS011;57635;49.194;12.104;2023-02-15T07:24:05;26.53;;;14.83;;
8088;SDS011;57635;49.194;12.104;2023-02-15T07:26:33;21.03;;;12.60;;
8088;SDS011;57635;49.194;12.104;2023-02-15T07:29:01;23.17;;;14.23;;
8088;SDS011;57635;49.194;12.104;2023-02-15T07:31:29;21.10;;;13.33;;
8088;SDS011;57635;49.194;12.104;2023-02-15T07:33:56;26.87;;;13.90;;
8088;SDS011;57635;49.194;12.104;2023-02-15T07:36:24;19.10;;;13.10;;
8088;SDS011;57635;49.194;12.104;2023-02-15T07:38:51;22.63;;;13.23;;
8088;SDS011;57635;49.194;12.104;2023-02-15T07:41:20;19.27;;;11.50;;
8088;SDS011;57635;49.194;12.104;2023-02-15T07:43:49;20.37;;;13.10;;
8088;SDS011;57635;49.194;12.104;2023-02-15T07:46:17;17.30;;;11.27;;
8088;SDS011;57635;49.194;12.104;2023-02-15T07:48:46;17.03;;;12.93;;
8088;SDS011;57635;49.194;12.104;2023-02-15T07:51:14;16.83;;;11.03;;
8088;SDS011;57635;49.194;12.104;2023-02-15T07:53:45;17.50;;;11.33;;
8088;SDS011;57635;49.194;12.104;2023-02-15T07:56:13;18.87;;;11.83;;
8088;SDS011;57635;49.194;12.104;2023-02-15T07:58:43;20.73;;;11.77;;
8088;SDS011;57635;49.194;12.104;2023-02-15T08:01:22;15.27;;;11.63;;
8088;SDS011;57635;49.194;12.104;2023-02-15T08:03:51;16.43;;;11.20;;
8088;SDS011;57635;49.194;12.104;2023-02-15T08:06:19;21.37;;;12.90;;
8088;SDS011;57635;49.194;12.104;2023-02-15T08:08:47;24.43;;;12.83;;
8088;SDS011;57635;49.194;12.104;2023-02-15T08:11:16;20.43;;;11.83;;
8088;SDS011;57635;49.194;12.104;2023-02-15T08:13:57;21.83;;;12.47;;
8088;SDS011;57635;49.194;12.104;2023-02-15T08:16:27;25.13;;;13.73;;
8088;SDS011;57635;49.194;12.104;2023-02-15T08:19:00;35.80;;;14.67;;
8088;SDS011;57635;49.194;12.104;2023-02-15T08:21:29;25.13;;;14.47;;
8088;SDS011;57635;49.194;12.104;2023-02-15T08:23:57;22.77;;;14.10;;
8088;SDS011;57635;49.194;12.104;2023-02-15T08:26:25;25.80;;;14.40;;
8088;SDS011;57635;49.194;12.104;2023-02-15T08:28:54;23.80;;;14.73;;
8088;SDS011;57635;49.194;12.104;2023-02-15T08:31:23;25.93;;;13.87;;
8088;SDS011;57635;49.194;12.104;2023-02-15T08:33:52;21.13;;;12.83;;
8088;SDS011;57635;49.194;12.104;2023-02-15T08:36:22;19.63;;;13.97;;
8088;SDS011;57635;49.194;12.104;2023-02-15T08:38:50;21.87;;;12.63;;
8088;SDS011;57635;49.194;12.104;2023-02-15T08:41:19;27.03;;;14.20;;
8088;SDS011;57635;49.194;12.104;2023-02-15T08:43:48;22.97;;;14.43;;
8088;SDS011;57635;49.194;12.104;2023-02-15T08:46:18;21.53;;;13.97;;
8088;SDS011;57635;49.194;12.104;2023-02-15T08:48:47;21.37;;;12.33;;
8088;SDS011;57635;49.194;12.104;2023-02-15T08:51:15;22.60;;;12.83;;
8088;SDS011;57635;49.194;12.104;2023-02-15T08:53:45;22.90;;;13.27;;
8088;SDS011;57635;49.194;12.104;2023-02-15T08:56:15;24.00;;;14.53;;
8088;SDS011;57635;49.194;12.104;2023-02-15T08:58:43;41.47;;;14.37;;
8088;SDS011;57635;49.194;12.104;2023-02-15T09:01:12;32.27;;;14.80;;
8088;SDS011;57635;49.194;12.104;2023-02-15T09:03:44;28.57;;;14.47;;
8088;SDS011;57635;49.194;12.104;2023-02-15T09:06:14;19.23;;;11.63;;
8088;SDS011;57635;49.194;12.104;2023-02-15T09:08:41;25.80;;;14.23;;
8088;SDS011;57635;49.194;12.104;2023-02-15T09:11:10;23.90;;;13.80;;
8088;SDS011;57635;49.194;12.104;2023-02-15T09:13:38;17.87;;;13.03;;
8088;SDS011;57635;49.194;12.104;2023-02-15T09:16:07;25.73;;;14.53;;
8088;SDS011;57635;49.194;12.104;2023-02-15T09:18:37;20.17;;;11.83;;
8088;SDS011;57635;49.194;12.104;2023-02-15T09:21:06;23.33;;;13.40;;
8088;SDS011;57635;49.194;12.104;2023-02-15T09:23:36;17.73;;;12.53;;
8088;SDS011;57635;49.194;12.104;2023-02-15T09:26:05;17.63;;;12.23;;
8088;SDS011;57635;49.194;12.104;2023-02-15T09:28:34;17.60;;;11.83;;
8088;SDS011;57635;49.194;12.104;2023-02-15T09:31:08;18.37;;;11.70;;
8088;SDS011;57635;49.194;12.104;2023-02-15T09:33:37;20.23;;;12.77;;
8088;SDS011;57635;49.194;12.104;2023-02-15T09:36:13;20.97;;;12.80;;
8088;SDS011;57635;49.194;12.104;2023-02-15T09:38:43;21.37;;;13.30;;
8088;SDS011;57635;49.194;12.104;2023-02-15T09:41:18;20.03;;;13.27;;
8088;SDS011;57635;49.194;12.104;2023-02-15T09:43:52;20.07;;;12.77;;
8088;SDS011;57635;49.194;12.104;2023-02-15T09:46:28;20.47;;;13.57;;
8088;SDS011;57635;49.194;12.104;2023-02-15T09:49:04;25.27;;;14.27;;
8088;SDS011;57635;49.194;12.104;2023-02-15T09:51:51;21.57;;;14.70;;
8088;SDS011;57635;49.194;12.104;2023-02-15T09:54:31;25.30;;;14.40;;
8088;SDS011;57635;49.194;12.104;2023-02-15T09:57:05;21.70;;;13.03;;
8088;SDS011;57635;49.194;12.104;2023-02-15T09:59:39;26.73;;;14.80;;
8088;SDS011;57635;49.194;12.104;2023-02-15T10:02:16;25.47;;;15.47;;
8088;SDS011;57635;49.194;12.104;2023-02-15T10:04:54;30.70;;;16.30;;
8088;SDS011;57635;49.194;12.104;2023-02-15T10:07:36;21.17;;;14.63;;
8088;SDS011;57635;49.194;12.104;2023-02-15T10:10:17;24.87;;;17.03;;
8088;SDS011;57635;49.194;12.104;2023-02-15T10:15:38;19.90;;;13.70;;
8088;SDS011;57635;49.194;12.104;2023-02-15T10:18:29;21.83;;;13.93;;
8088;SDS011;57635;49.194;12.104;2023-02-15T10:21:03;22.67;;;15.80;;
8088;SDS011;57635;49.194;12.104;2023-02-15T10:23:39;19.23;;;14.17;;
8088;SDS011;57635;49.194;12.104;2023-02-15T10:26:16;19.20;;;13.57;;
8088;SDS011;57635;49.194;12.104;2023-02-15T10:28:46;19.93;;;14.60;;
8088;SDS011;57635;49.194;12.104;2023-02-15T10:31:23;22.67;;;14.60;;
8088;SDS011;57635;49.194;12.104;2023-02-15T10:33:55;20.93;;;14.73;;
8088;SDS011;57635;49.194;12.104;2023-02-15T10:36:32;23.23;;;15.80;;
8088;SDS011;57635;49.194;12.104;2023-02-15T10:39:09;20.50;;;15.27;;
8088;SDS011;57635;49.194;12.104;2023-02-15T10:41:44;23.53;;;15.20;;
8088;SDS011;57635;49.194;12.104;2023-02-15T10:44:19;16.37;;;13.20;;
8088;SDS011;57635;49.194;12.104;2023-02-15T10:46:59;21.53;;;15.47;;
8088;SDS011;57635;49.194;12.104;2023-02-15T10:49:41;22.10;;;14.30;;
8088;SDS011;57635;49.194;12.104;2023-02-15T10:52:18;21.97;;;14.60;;
8088;SDS011;57635;49.194;12.104;2023-02-15T10:54:56;21.20;;;15.93;;
8088;SDS011;57635;49.194;12.104;2023-02-15T10:57:33;23.67;;;14.87;;
8088;SDS011;57635;49.194;12.104;2023-02-15T11:00:09;20.80;;;15.57;;
8088;SDS011;57635;49.194;12.104;2023-02-15T11:02:50;21.83;;;15.20;;
8088;SDS011;57635;49.194;12.104;2023-02-15T11:05:30;24.40;;;15.87;;
8088;SDS011;57635;49.194;12.104;2023-02-15T11:08:03;19.80;;;14.03;;
8088;SDS011;57635;49.194;12.104;2023-02-15T11:10:35;16.70;;;13.27;;
8088;SDS011;57635;49.194;12.104;2023-02-15T11:13:08;19.00;;;14.57;;
8088;SDS011;57635;49.194;12.104;2023-02-15T11:15:38;18.20;;;13.93;;
8088;SDS011;57635;49.194;12.104;2023-02-15T11:18:09;20.80;;;14.93;;
8088;SDS011;57635;49.194;12.104;2023-02-15T11:20:41;18.13;;;14.63;;
8088;SDS011;57635;49.194;12.104;2023-02-15T11:23:19;17.47;;;13.77;;
8088;SDS011;57635;49.194;12.104;2023-02-15T11:25:52;21.10;;;15.37;;
8088;SDS011;57635;49.194;12.104;2023-02-15T11:28:24;19.17;;;14.60;;
8088;SDS011;57635;49.194;12.104;2023-02-15T11:30:55;19.50;;;15.07;;
8088;SDS011;57635;49.194;12.104;2023-02-15T11:33:25;16.70;;;13.00;;
8088;SDS011;57635;49.194;12.104;2023-02-15T11:35:56;18.23;;;13.43;;
8088;SDS011;57635;49.194;12.104;2023-02-15T11:38:28;19.47;;;14.03;;
8088;SDS011;57635;49.194;12.104;2023-02-15T11:40:57;16.67;;;13.77;;
8088;SDS011;57635;49.194;12.104;2023-02-15T11:43:29;19.30;;;14.77;;
8088;SDS011;57635;49.194;12.104;2023-02-15T11:46:00;17.60;;;13.80;;
8088;SDS011;57635;49.194;12.104;2023-02-15T11:48:28;21.80;;;15.43;;
8088;SDS011;57635;49.194;12.104;2023-02-15T11:50:57;16.13;;;13.77;;
8088;SDS011;57635;49.194;12.104;2023-02-15T11:53:25;17.60;;;15.57;;
8088;SDS011;57635;49.194;12.104;2023-02-15T11:55:55;19.67;;;14.87;;
8088;SDS011;57635;49.194;12.104;2023-02-15T11:58:25;17.00;;;14.03;;
8088;SDS011;57635;49.194;12.104;2023-02-15T12:00:58;17.77;;;14.00;;
8088;SDS011;57635;49.194;12.104;2023-02-15T12:03:31;19.63;;;15.07;;
8088;SDS011;57635;49.194;12.104;2023-02-15T12:06:05;22.33;;;16.63;;
8088;SDS011;57635;49.194;12.104;2023-02-15T12:08:34;20.43;;;14.87;;
8088;SDS011;57635;49.194;12.104;2023-02-15T12:11:06;19.97;;;15.90;;
8088;SDS011;57635;49.194;12.104;2023-02-15T12:13:47;21.30;;;15.93;;
8088;SDS011;57635;49.194;12.104;2023-02-15T12:16:21;16.67;;;13.40;;
8088;SDS011;57635;49.194;12.104;2023-02-15T12:18:49;19.67;;;14.30;;
8088;SDS011;57635;49.194;12.104;2023-02-15T12:21:23;18.47;;;14.20;;
8088;SDS011;57635;49.194;12.104;2023-02-15T12:23:53;20.60;;;14.77;;
8088;SDS011;57635;49.194;12.104;2023-02-15T12:26:23;17.87;;;13.47;;
8088;SDS011;57635;49.194;12.104;2023-02-15T12:28:53;18.30;;;14.80;;
8088;SDS011;57635;49.194;12.104;2023-02-15T12:31:24;17.27;;;15.37;;
8088;SDS011;57635;49.194;12.104;2023-02-15T12:33:55;17.37;;;14.63;;
8088;SDS011;57635;49.194;12.104;2023-02-15T12:36:24;19.23;;;15.53;;
8088;SDS011;57635;49.194;12.104;2023-02-15T12:39:02;17.97;;;14.90;;
8088;SDS011;57635;49.194;12.104;2023-02-15T12:41:31;20.97;;;15.33;;
8088;SDS011;57635;49.194;12.104;2023-02-15T12:44:04;18.53;;;15.43;;
8088;SDS011;57635;49.194;12.104;2023-02-15T12:46:39;19.07;;;15.43;;
8088;SDS011;57635;49.194;12.104;2023-02-15T12:49:11;22.47;;;17.00;;
8088;SDS011;57635;49.194;12.104;2023-02-15T12:51:48;20.57;;;15.23;;
8088;SDS011;57635;49.194;12.104;2023-02-15T12:54:20;18.77;;;14.93;;
8088;SDS011;57635;49.194;12.104;2023-02-15T12:56:55;19.20;;;14.80;;
8088;SDS011;57635;49.194;12.104;2023-02-15T12:59:25;17.30;;;15.50;;
8088;SDS011;57635;49.194;12.104;2023-02-15T13:01:53;23.13;;;16.27;;
8088;SDS011;57635;49.194;12.104;2023-02-15T13:04:22;19.93;;;15.67;;
8088;SDS011;57635;49.194;12.104;2023-02-15T13:06:52;19.27;;;16.90;;
8088;SDS011;57635;49.194;12.104;2023-02-15T13:09:23;20.83;;;15.43;;
8088;SDS011;57635;49.194;12.104;2023-02-15T13:11:56;21.40;;;16.23;;
8088;SDS011;57635;49.194;12.104;2023-02-15T13:14:28;20.63;;;15.63;;
8088;SDS011;57635;49.194;12.104;2023-02-15T13:16:58;22.67;;;16.03;;
8088;SDS011;57635;49.194;12.104;2023-02-15T13:19:29;19.73;;;16.20;;
8088;SDS011;57635;49.194;12.104;2023-02-15T13:21:59;23.50;;;16.80;;
8088;SDS011;57635;49.194;12.104;2023-02-15T13:24:32;22.67;;;16.73;;
8088;SDS011;57635;49.194;12.104;2023-02-15T13:27:01;19.60;;;16.90;;
8088;SDS011;57635;49.194;12.104;2023-02-15T13:29:43;19.37;;;15.03;;
8088;SDS011;57635;49.194;12.104;2023-02-15T13:32:15;26.87;;;18.67;;
8088;SDS011;57635;49.194;12.104;2023-02-15T13:34:51;23.03;;;16.23;;
8088;SDS011;57635;49.194;12.104;2023-02-15T13:37:33;24.53;;;16.60;;
8088;SDS011;57635;49.194;12.104;2023-02-15T13:40:11;20.80;;;16.47;;
8088;SDS011;57635;49.194;12.104;2023-02-15T13:42:42;22.97;;;17.70;;
8088;SDS011;57635;49.194;12.104;2023-02-15T13:45:20;20.97;;;17.00;;
8088;SDS011;57635;49.194;12.104;2023-02-15T13:48:00;20.43;;;16.53;;
8088;SDS011;57635;49.194;12.104;2023-02-15T13:50:37;22.10;;;16.17;;
8088;SDS011;57635;49.194;12.104;2023-02-15T13:56:20;22.17;;;17.13;;
8088;SDS011;57635;49.194;12.104;2023-02-15T13:59:15;26.00;;;17.60;;
8088;SDS011;57635;49.194;12.104;2023-02-15T14:02:08;23.37;;;17.47;;
8088;SDS011;57635;49.194;12.104;2023-02-15T14:04:51;22.67;;;16.17;;
8088;SDS011;57635;49.194;12.104;2023-02-15T14:07:39;24.40;;;17.77;;
8088;SDS011;57635;49.194;12.104;2023-02-15T14:10:18;23.40;;;17.60;;
8088;SDS011;57635;49.194;12.104;2023-02-15T14:12:57;22.93;;;17.90;;
8088;SDS011;57635;49.194;12.104;2023-02-15T14:15:33;24.03;;;17.23;;
8088;SDS011;57635;49.194;12.104;2023-02-15T14:18:07;22.00;;;16.70;;
8088;SDS011;57635;49.194;12.104;2023-02-15T14:20:43;20.77;;;16.13;;
8088;SDS011;57635;49.194;12.104;2023-02-15T14:23:19;25.47;;;17.67;;
8088;SDS011;57635;49.194;12.104;2023-02-15T14:25:56;27.77;;;19.13;;
8088;SDS011;57635;49.194;12.104;2023-02-15T14:28:30;22.23;;;17.43;;
8088;SDS011;57635;49.194;12.104;2023-02-15T14:31:01;20.03;;;17.17;;
8088;SDS011;57635;49.194;12.104;2023-02-15T14:33:32;25.03;;;17.50;;
8088;SDS011;57635;49.194;12.104;2023-02-15T14:36:03;24.87;;;17.17;;
8088;SDS011;57635;49.194;12.104;2023-02-15T14:38:37;20.80;;;15.33;;
8088;SDS011;57635;49.194;12.104;2023-02-15T14:41:12;25.47;;;17.37;;
8088;SDS011;57635;49.194;12.104;2023-02-15T14:43:43;19.47;;;15.53;;
8088;SDS011;57635;49.194;12.104;2023-02-15T14:46:17;22.73;;;16.50;;
8088;SDS011;57635;49.194;12.104;2023-02-15T14:48:51;22.00;;;16.20;;
8088;SDS011;57635;49.194;12.104;2023-02-15T14:57:28;21.30;;;16.77;;
8088;SDS011;57635;49.194;12.104;2023-02-15T15:00:02;23.77;;;16.83;;
8088;SDS011;57635;49.194;12.104;2023-02-15T15:02:54;19.53;;;15.67;;
8088;SDS011;57635;49.194;12.104;2023-02-15T15:05:24;19.07;;;16.53;;
8088;SDS011;57635;49.194;12.104;2023-02-15T15:07:58;27.27;;;18.70;;